createdAt,value
2022-11-20T00:00:38.990Z,97930.84
2022-11-20T00:01:40.504Z,97929.78
2022-11-20T00:02:41.883Z,97931.09
2022-11-20T00:03:43.678Z,97931.88
2022-11-20T00:04:45.446Z,97931.09
2022-11-20T00:05:46.898Z,97930.53
2022-11-20T00:06:48.250Z,97937.06
2022-11-20T00:07:49.623Z,97933.66
2022-11-20T00:08:50.996Z,97930.75
2022-11-20T00:09:52.351Z,97935.22
2022-11-20T00:10:53.684Z,97937.06
2022-11-20T00:11:55.033Z,97935.22
2022-11-20T00:12:56.353Z,97937.31
2022-11-20T00:13:58.524Z,97941.25
2022-11-20T00:14:59.883Z,97943.38
2022-11-20T00:16:02.243Z,97941.03
2022-11-20T00:17:03.572Z,97932.34
2022-11-20T00:18:04.925Z,97933.94
2022-11-20T00:19:06.309Z,97944.22
2022-11-20T00:20:07.841Z,97935.31
2022-11-20T00:21:14.340Z,97942.72
2022-11-20T00:22:15.679Z,97936.69
2022-11-20T00:23:17.035Z,97935.84
2022-11-20T00:24:18.352Z,97935.50
2022-11-20T00:25:19.698Z,97935.22
2022-11-20T00:26:21.651Z,97933.94
2022-11-20T00:27:23.003Z,97937.91
2022-11-20T00:28:24.398Z,97935.03
2022-11-20T00:29:25.736Z,97932.94
2022-11-20T00:30:27.062Z,97935.84
2022-11-20T00:31:28.853Z,97932.97
2022-11-20T00:32:30.508Z,97932.97
2022-11-20T00:33:32.064Z,97933.25
2022-11-20T00:34:34.102Z,97936.38
2022-11-20T00:35:35.459Z,97932.63
2022-11-20T00:36:36.790Z,97933.94
2022-11-20T00:37:38.158Z,97935.50
2022-11-20T00:38:39.492Z,97939.41
2022-11-20T00:39:40.874Z,97940.22
2022-11-20T00:40:42.186Z,97933.13
2022-11-20T00:41:43.552Z,97933.13
2022-11-20T00:42:44.874Z,97936.00
2022-11-20T00:43:46.252Z,97934.44
2022-11-20T00:44:47.708Z,97926.56
2022-11-20T00:45:49.059Z,97929.72
2022-11-20T00:46:50.390Z,97928.63
2022-11-20T00:47:51.703Z,97935.16
2022-11-20T00:48:53.342Z,97935.94
2022-11-20T00:49:54.662Z,97929.91
2022-11-20T00:50:56.106Z,97931.47
2022-11-20T00:51:57.463Z,97928.06
2022-11-20T00:52:58.789Z,97940.16
2022-11-20T00:54:00.155Z,97931.47
2022-11-20T00:55:01.620Z,97924.13
2022-11-20T00:56:07.445Z,97935.13
2022-11-20T00:57:08.771Z,97932.47
2022-11-20T00:58:14.106Z,97924.59
2022-11-20T00:59:15.854Z,97929.59
2022-11-20T01:00:17.274Z,97941.38
2022-11-20T01:01:18.741Z,97929.81
2022-11-20T01:02:20.163Z,97935.84
2022-11-20T01:03:26.629Z,97930.59
2022-11-20T01:04:29.089Z,97939.28
2022-11-20T01:05:34.725Z,97937.69
2022-11-20T01:06:37.309Z,97937.69
2022-11-20T01:07:38.930Z,97934.03
2022-11-20T01:08:40.703Z,97941.63
2022-11-20T01:09:42.384Z,97936.34
2022-11-20T01:10:43.725Z,97937.91
2022-11-20T01:11:45.414Z,97937.91
2022-11-20T01:12:46.798Z,97942.09
2022-11-20T01:13:49.344Z,97947.66
2022-11-20T01:14:50.752Z,97945.03
2022-11-20T01:15:52.214Z,97941.31
2022-11-20T01:16:53.572Z,97946.09
2022-11-20T01:17:54.972Z,97944.00
2022-11-20T01:18:57.613Z,97941.38
2022-11-20T01:19:59.038Z,97945.38
2022-11-20T01:21:04.413Z,97941.16
2022-11-20T01:22:05.791Z,97943.78
2022-11-20T01:23:07.390Z,97944.59
2022-11-20T01:24:10.923Z,97937.19
2022-11-20T01:25:12.392Z,97940.31
2022-11-20T01:26:15.430Z,97942.16
2022-11-20T01:27:16.980Z,97938.25
2022-11-20T01:28:18.337Z,97948.72
2022-11-20T01:29:22.461Z,97952.41
2022-11-20T01:30:24.136Z,97948.44
2022-11-20T01:31:26.721Z,97948.72
2022-11-20T01:32:28.082Z,97945.56
2022-11-20T01:33:29.490Z,97945.31
2022-11-20T01:34:30.885Z,97950.56
2022-11-20T01:35:32.303Z,97946.09
2022-11-20T01:36:34.520Z,97950.78
2022-11-20T01:37:35.900Z,97947.66
2022-11-20T01:38:37.585Z,97949.22
2022-11-20T01:39:38.919Z,97949.22
2022-11-20T01:40:40.287Z,97942.09
2022-11-20T01:41:42.027Z,97941.84
2022-11-20T01:42:52.741Z,97947.53
2022-11-20T01:43:54.152Z,97940.44
2022-11-20T01:44:55.517Z,97949.38
2022-11-20T01:45:58.809Z,97932.84
2022-11-20T01:47:02.711Z,97943.13
2022-11-20T01:48:04.223Z,97942.34
2022-11-20T01:49:11.592Z,97949.16
2022-11-20T01:50:16.160Z,97946.03
2022-11-20T01:51:20.535Z,97936.59
2022-11-20T01:52:24.161Z,97940.00
2022-11-20T01:53:27.983Z,97937.38
2022-11-20T01:54:35.535Z,97940.72
2022-11-20T01:55:42.417Z,97937.50
2022-11-20T01:56:45.177Z,97941.22
2022-11-20T01:57:49.135Z,97946.47
2022-11-20T01:58:54.063Z,97936.75
2022-11-20T01:59:58.063Z,97939.88
2022-11-20T02:00:59.562Z,97938.03
2022-11-20T02:02:01.108Z,97940.91
2022-11-20T02:03:04.809Z,97939.31
2022-11-20T02:04:08.146Z,97943.53
2022-11-20T02:05:15.688Z,97939.81
2022-11-20T02:06:31.926Z,97944.78
2022-11-20T02:07:33.406Z,97940.31
2022-11-20T02:08:34.867Z,97945.56
2022-11-20T02:09:36.236Z,97948.78
2022-11-20T02:10:37.569Z,97952.44
2022-11-20T02:11:38.969Z,97944.31
2022-11-20T02:12:40.398Z,97945.09
2022-11-20T02:13:42.064Z,97950.81
2022-11-20T02:14:43.442Z,97950.56
2022-11-20T02:15:45.208Z,97944.25
2022-11-20T02:16:47.614Z,97937.91
2022-11-20T02:17:49.443Z,97942.41
2022-11-20T02:18:51.634Z,97936.06
2022-11-20T02:19:53.103Z,97932.38
2022-11-20T02:20:59.746Z,97929.75
2022-11-20T02:22:10.126Z,97938.94
2022-11-20T02:23:21.313Z,97936.78
2022-11-20T02:24:23.562Z,97940.41
2022-11-20T02:25:26.231Z,97941.97
2022-11-20T02:26:28.795Z,97931.47
2022-11-20T02:27:30.454Z,97927.78
2022-11-20T02:28:32.017Z,97928.56
2022-11-20T02:29:42.690Z,97930.38
2022-11-20T02:30:44.134Z,97932.69
2022-11-20T02:31:45.895Z,97930.56
2022-11-20T02:32:47.290Z,97933.19
2022-11-20T02:33:48.631Z,97925.03
2022-11-20T02:34:50.013Z,97939.75
2022-11-20T02:35:51.418Z,97929.22
2022-11-20T02:36:53.085Z,97929.22
2022-11-20T02:37:55.776Z,97929.22
2022-11-20T02:38:57.196Z,97936.03
2022-11-20T02:39:58.584Z,97936.53
2022-11-20T02:40:59.949Z,97933.91
2022-11-20T02:42:01.687Z,97942.59
2022-11-20T02:43:03.068Z,97939.16
2022-11-20T02:44:05.166Z,97939.69
2022-11-20T02:45:06.997Z,97941.72
2022-11-20T02:46:08.911Z,97938.06
2022-11-20T02:47:10.451Z,97938.06
2022-11-20T02:48:11.814Z,97945.66
2022-11-20T02:49:13.158Z,97940.38
2022-11-20T02:50:14.534Z,97940.38
2022-11-20T02:51:15.916Z,97937.47
2022-11-20T02:52:17.253Z,97937.47
2022-11-20T02:53:18.652Z,97936.44
2022-11-20T02:54:20.037Z,97935.91
2022-11-20T02:55:21.414Z,97931.44
2022-11-20T02:56:22.794Z,97923.47
2022-11-20T02:57:24.196Z,97925.31
2022-11-20T02:58:25.539Z,97924.53
2022-11-20T02:59:26.926Z,97930.59
2022-11-20T03:00:28.427Z,97925.84
2022-11-20T03:01:29.822Z,97927.66
2022-11-20T03:02:31.571Z,97927.94
2022-11-20T03:03:32.995Z,97922.69
2022-11-20T03:04:34.340Z,97925.31
2022-11-20T03:05:35.702Z,97931.88
2022-11-20T03:06:37.077Z,97928.19
2022-11-20T03:07:38.477Z,97924.47
2022-11-20T03:08:39.843Z,97926.03
2022-11-20T03:09:41.156Z,97928.97
2022-11-20T03:10:42.491Z,97931.59
2022-11-20T03:11:43.908Z,97922.69
2022-11-20T03:12:45.287Z,97933.66
2022-11-20T03:13:46.787Z,97927.88
2022-11-20T03:14:52.876Z,97924.19
2022-11-20T03:15:54.727Z,97928.41
2022-11-20T03:16:56.523Z,97924.41
2022-11-20T03:17:57.905Z,97929.97
2022-11-20T03:18:59.569Z,97928.88
2022-11-20T03:20:00.975Z,97927.81
2022-11-20T03:21:02.407Z,97927.81
2022-11-20T03:22:03.872Z,97913.09
2022-11-20T03:23:05.223Z,97923.31
2022-11-20T03:24:07.148Z,97918.66
2022-11-20T03:25:08.805Z,97917.88
2022-11-20T03:26:10.131Z,97915.72
2022-11-20T03:27:11.481Z,97919.13
2022-11-20T03:28:12.885Z,97915.50
2022-11-20T03:29:14.299Z,97917.38
2022-11-20T03:30:15.699Z,97915.50
2022-11-20T03:31:18.209Z,97913.94
2022-11-20T03:32:19.606Z,97911.84
2022-11-20T03:33:21.115Z,97918.91
2022-11-20T03:34:22.897Z,97912.31
2022-11-20T03:35:25.921Z,97914.16
2022-11-20T03:36:28.159Z,97916.50
2022-11-20T03:37:31.441Z,97912.81
2022-11-20T03:38:33.136Z,97905.69
2022-11-20T03:39:34.465Z,97915.72
2022-11-20T03:40:35.861Z,97914.16
2022-11-20T03:41:38.738Z,97915.25
2022-11-20T03:42:40.097Z,97911.25
2022-11-20T03:43:41.489Z,97913.09
2022-11-20T03:44:42.832Z,97912.31
2022-11-20T03:45:44.197Z,97919.13
2022-11-20T03:46:45.606Z,97919.91
2022-11-20T03:47:47.038Z,97903.88
2022-11-20T03:48:51.862Z,97911.97
2022-11-20T03:49:53.545Z,97911.97
2022-11-20T03:51:07.386Z,97911.47
2022-11-20T03:52:08.753Z,97908.06
2022-11-20T03:53:10.112Z,97905.91
2022-11-20T03:54:11.510Z,97903.56
2022-11-20T03:55:12.894Z,97904.44
2022-11-20T03:56:15.872Z,97908.31
2022-11-20T03:57:17.225Z,97910.97
2022-11-20T03:58:18.598Z,97909.69
2022-11-20T03:59:20.172Z,97914.66
2022-11-20T04:00:21.843Z,97910.09
2022-11-20T04:01:24.537Z,97909.31
2022-11-20T04:02:25.943Z,97911.69
2022-11-20T04:03:27.324Z,97918.78
2022-11-20T04:04:28.691Z,97913.81
2022-11-20T04:05:30.111Z,97914.59
2022-11-20T04:06:34.466Z,97912.25
2022-11-20T04:07:35.985Z,97899.88
2022-11-20T04:08:37.561Z,97902.22
2022-11-20T04:09:38.908Z,97904.84
2022-11-20T04:10:40.323Z,97910.41
2022-11-20T04:11:41.702Z,97912.25
2022-11-20T04:12:43.178Z,97905.13
2022-11-20T04:13:47.246Z,97906.22
2022-11-20T04:14:48.664Z,97907.28
2022-11-20T04:15:50.041Z,97907.00
2022-11-20T04:16:51.516Z,97905.69
2022-11-20T04:17:52.867Z,97903.88
2022-11-20T04:18:54.905Z,97915.19
2022-11-20T04:19:56.307Z,97903.88
2022-11-20T04:20:58.161Z,97906.78
2022-11-20T04:21:59.520Z,97902.03
2022-11-20T04:23:00.898Z,97909.41
2022-11-20T04:24:02.612Z,97908.91
2022-11-20T04:25:04.140Z,97908.91
2022-11-20T04:26:06.898Z,97910.75
2022-11-20T04:27:08.278Z,97903.66
2022-11-20T04:28:10.366Z,97907.06
2022-11-20T04:29:12.400Z,97907.63
2022-11-20T04:30:13.884Z,97902.09
2022-11-20T04:31:17.150Z,97903.13
2022-11-20T04:32:18.532Z,97908.41
2022-11-20T04:33:19.938Z,97898.94
2022-11-20T04:34:21.294Z,97908.41
2022-11-20T04:35:22.616Z,97908.13
2022-11-20T04:36:25.953Z,97905.00
2022-11-20T04:37:27.470Z,97908.22
2022-11-20T04:38:29.141Z,97909.25
2022-11-20T04:39:30.468Z,97909.53
2022-11-20T04:40:31.841Z,97901.16
2022-11-20T04:41:35.778Z,97905.34
2022-11-20T04:42:37.173Z,97905.34
2022-11-20T04:43:38.606Z,97900.38
2022-11-20T04:44:40.063Z,97904.88
2022-11-20T04:45:41.424Z,97895.38
2022-11-20T04:46:43.258Z,97910.63
2022-11-20T04:47:44.829Z,97906.91
2022-11-20T04:48:46.646Z,97911.09
2022-11-20T04:49:48.177Z,97901.09
2022-11-20T04:50:49.610Z,97900.31
2022-11-20T04:51:53.749Z,97905.28
2022-11-20T04:52:55.155Z,97909.25
2022-11-20T04:53:56.601Z,97902.16
2022-11-20T04:54:58.031Z,97904.00
2022-11-20T04:56:17.944Z,97915.59
2022-11-20T04:57:19.863Z,97907.22
2022-11-20T04:58:21.245Z,97906.44
2022-11-20T04:59:22.997Z,97899.88
2022-11-20T05:00:25.165Z,97909.06
2022-11-20T05:01:26.691Z,97902.72
2022-11-20T05:02:28.117Z,97908.28
2022-11-20T05:03:29.630Z,97904.56
2022-11-20T05:04:30.942Z,97896.47
2022-11-20T05:05:32.614Z,97898.25
2022-11-20T05:06:34.281Z,97895.31
2022-11-20T05:07:35.657Z,97897.94
2022-11-20T05:08:37.076Z,97903.22
2022-11-20T05:09:38.566Z,97901.94
2022-11-20T05:10:39.956Z,97904.00
2022-11-20T05:11:41.311Z,97898.72
2022-11-20T05:12:42.694Z,97902.44
2022-11-20T05:13:44.279Z,97899.53
2022-11-20T05:14:45.929Z,97904.22
2022-11-20T05:15:47.377Z,97901.09
2022-11-20T05:16:48.813Z,97900.56
2022-11-20T05:17:50.857Z,97896.38
2022-11-20T05:18:53.206Z,97899.03
2022-11-20T05:19:54.564Z,97896.38
2022-11-20T05:20:56.826Z,97899.31
2022-11-20T05:21:58.234Z,97900.88
2022-11-20T05:22:59.723Z,97897.94
2022-11-20T05:24:01.058Z,97902.44
2022-11-20T05:25:02.430Z,97909.53
2022-11-20T05:26:04.333Z,97904.00
2022-11-20T05:27:05.706Z,97907.44
2022-11-20T05:28:07.035Z,97905.28
2022-11-20T05:29:10.336Z,97907.91
2022-11-20T05:30:12.061Z,97901.88
2022-11-20T05:31:14.916Z,97904.22
2022-11-20T05:32:16.241Z,97901.56
2022-11-20T05:33:17.807Z,97900.31
2022-11-20T05:34:19.206Z,97900.81
2022-11-20T05:35:20.571Z,97905.28
2022-11-20T05:36:21.967Z,97902.66
2022-11-20T05:37:23.369Z,97908.97
2022-11-20T05:38:24.683Z,97900.31
2022-11-20T05:39:26.124Z,97901.09
2022-11-20T05:40:27.470Z,97897.41
2022-11-20T05:41:28.866Z,97896.63
2022-11-20T05:42:33.232Z,97900.03
2022-11-20T05:43:38.478Z,97903.13
2022-11-20T05:44:40.337Z,97896.31
2022-11-20T05:45:41.679Z,97897.09
2022-11-20T05:46:43.077Z,97899.72
2022-11-20T05:47:44.462Z,97899.47
2022-11-20T05:48:46.381Z,97900.25
2022-11-20T05:49:47.763Z,97894.69
2022-11-20T05:50:49.120Z,97901.03
2022-11-20T05:51:50.463Z,97895.75
2022-11-20T05:52:51.891Z,97895.25
2022-11-20T05:53:53.425Z,97896.63
2022-11-20T05:54:54.767Z,97893.69
2022-11-20T05:56:03.437Z,97898.41
2022-11-20T05:57:04.760Z,97888.66
2022-11-20T05:58:06.105Z,97889.66
2022-11-20T05:59:07.520Z,97895.97
2022-11-20T06:00:09.104Z,97894.13
2022-11-20T06:01:10.476Z,97900.44
2022-11-20T06:02:11.912Z,97895.16
2022-11-20T06:03:13.575Z,97894.41
2022-11-20T06:04:14.945Z,97898.03
2022-11-20T06:05:16.412Z,97892.75
2022-11-20T06:06:18.574Z,97889.06
2022-11-20T06:07:20.001Z,97897.69
2022-11-20T06:08:21.367Z,97886.88
2022-11-20T06:09:23.032Z,97890.06
2022-11-20T06:10:24.579Z,97888.19
2022-11-20T06:11:26.177Z,97889.78
2022-11-20T06:12:27.521Z,97890.84
2022-11-20T06:13:28.979Z,97892.41
2022-11-20T06:14:30.465Z,97887.72
2022-11-20T06:15:31.829Z,97893.75
2022-11-20T06:16:33.256Z,97888.00
2022-11-20T06:17:34.618Z,97893.28
2022-11-20T06:18:36.171Z,97895.91
2022-11-20T06:19:37.501Z,97888.00
2022-11-20T06:20:42.064Z,97888.78
2022-11-20T06:21:43.732Z,97888.00
2022-11-20T06:22:45.184Z,97885.38
2022-11-20T06:23:46.951Z,97889.56
2022-11-20T06:24:48.374Z,97890.06
2022-11-20T06:25:49.726Z,97891.13
2022-11-20T06:26:51.049Z,97889.28
2022-11-20T06:27:52.710Z,97887.44
2022-11-20T06:28:54.609Z,97879.53
2022-11-20T06:29:55.960Z,97886.34
2022-11-20T06:30:57.503Z,97881.09
2022-11-20T06:31:58.825Z,97883.16
2022-11-20T06:33:00.188Z,97888.13
2022-11-20T06:34:02.308Z,97889.19
2022-11-20T06:35:03.810Z,97885.78
2022-11-20T06:36:10.329Z,97889.19
2022-11-20T06:37:12.144Z,97891.84
2022-11-20T06:38:13.509Z,97890.75
2022-11-20T06:39:14.882Z,97890.75
2022-11-20T06:40:16.352Z,97888.63
2022-11-20T06:41:19.448Z,97887.09
2022-11-20T06:42:20.813Z,97886.50
2022-11-20T06:43:22.802Z,97884.94
2022-11-20T06:44:24.416Z,97895.47
2022-11-20T06:45:25.806Z,97890.50
2022-11-20T06:46:27.124Z,97893.91
2022-11-20T06:47:28.462Z,97889.72
2022-11-20T06:48:30.194Z,97890.50
2022-11-20T06:49:31.555Z,97888.13
2022-11-20T06:50:33.112Z,97890.75
2022-11-20T06:51:34.505Z,97889.19
2022-11-20T06:52:40.788Z,97884.72
2022-11-20T06:53:44.815Z,97892.06
2022-11-20T06:54:46.160Z,97896.25
2022-11-20T06:55:47.831Z,97903.66
2022-11-20T06:56:49.221Z,97899.38
2022-11-20T06:57:55.772Z,97897.78
2022-11-20T06:58:57.300Z,97893.81
2022-11-20T06:59:58.672Z,97890.91
2022-11-20T07:01:00.524Z,97898.00
2022-11-20T07:02:01.944Z,97890.81
2022-11-20T07:03:10.267Z,97893.75
2022-11-20T07:04:18.156Z,97895.31
2022-11-20T07:05:19.540Z,97892.75
2022-11-20T07:06:20.962Z,97898.22
2022-11-20T07:07:22.538Z,97893.75
2022-11-20T07:08:24.116Z,97894.81
2022-11-20T07:09:25.545Z,97899.31
2022-11-20T07:10:27.112Z,97895.88
2022-11-20T07:11:28.439Z,97900.09
2022-11-20T07:12:29.849Z,97901.94
2022-11-20T07:13:31.442Z,97899.31
2022-11-20T07:14:32.858Z,97898.22
2022-11-20T07:15:34.627Z,97907.97
2022-11-20T07:16:35.968Z,97905.06
2022-11-20T07:17:37.321Z,97908.47
2022-11-20T07:18:38.796Z,97908.47
2022-11-20T07:19:40.144Z,97903.72
2022-11-20T07:20:41.574Z,97908.69
2022-11-20T07:21:43.207Z,97908.09
2022-11-20T07:22:44.538Z,97912.00
2022-11-20T07:23:45.910Z,97912.50
2022-11-20T07:24:47.602Z,97914.56
2022-11-20T07:25:49.043Z,97913.50
2022-11-20T07:26:50.431Z,97912.41
2022-11-20T07:27:51.993Z,97915.03
2022-11-20T07:28:53.318Z,97912.41
2022-11-20T07:29:54.734Z,97922.16
2022-11-20T07:30:56.213Z,97914.78
2022-11-20T07:31:57.551Z,97922.38
2022-11-20T07:32:59.002Z,97919.44
2022-11-20T07:34:00.524Z,97919.97
2022-11-20T07:35:01.904Z,97923.66
2022-11-20T07:36:03.359Z,97923.06
2022-11-20T07:37:10.098Z,97928.34
2022-11-20T07:38:12.413Z,97923.78
2022-11-20T07:39:13.810Z,97919.56
2022-11-20T07:40:15.784Z,97933.53
2022-11-20T07:41:17.815Z,97929.03
2022-11-20T07:42:19.236Z,97925.91
2022-11-20T07:43:20.676Z,97929.03
2022-11-20T07:44:22.258Z,97925.63
2022-11-20T07:45:24.765Z,97927.69
2022-11-20T07:46:26.221Z,97926.13
2022-11-20T07:47:27.754Z,97926.31
2022-11-20T07:48:29.108Z,97924.50
2022-11-20T07:49:30.493Z,97928.19
2022-11-20T07:50:31.852Z,97932.66
2022-11-20T07:51:33.179Z,97926.63
2022-11-20T07:52:34.600Z,97929.25
2022-11-20T07:53:36.112Z,97926.13
2022-11-20T07:54:37.482Z,97923.97
2022-11-20T07:55:38.844Z,97932.66
2022-11-20T07:56:40.199Z,97928.19
2022-11-20T07:57:41.676Z,97931.88
2022-11-20T07:58:43.085Z,97930.81
2022-11-20T07:59:44.378Z,97930.25
2022-11-20T08:00:45.788Z,97932.88
2022-11-20T08:01:47.167Z,97934.72
2022-11-20T08:02:48.514Z,97935.50
2022-11-20T08:03:49.938Z,97936.28
2022-11-20T08:04:51.278Z,97933.34
2022-11-20T08:05:52.671Z,97931.22
2022-11-20T08:06:54.064Z,97931.72
2022-11-20T08:08:01.310Z,97924.03
2022-11-20T08:09:06.482Z,97929.00
2022-11-20T08:10:09.076Z,97925.78
2022-11-20T08:11:12.662Z,97931.53
2022-11-20T08:12:19.285Z,97929.69
2022-11-20T08:13:22.761Z,97928.63
2022-11-20T08:14:28.606Z,97931.44
2022-11-20T08:15:40.098Z,97934.59
2022-11-20T08:16:48.948Z,97931.09
2022-11-20T08:18:15.305Z,97925.22
2022-11-20T08:19:17.282Z,97933.56
2022-11-20T08:20:18.672Z,97935.31
2022-11-20T08:21:21.035Z,97935.50
2022-11-20T08:22:24.719Z,97933.56
2022-11-20T08:23:26.098Z,97937.16
2022-11-20T08:24:27.427Z,97941.28
2022-11-20T08:25:29.534Z,97940.97
2022-11-20T08:26:30.949Z,97935.72
2022-11-20T08:27:32.607Z,97940.22
2022-11-20T08:28:34.004Z,97939.13
2022-11-20T08:29:35.543Z,97937.47
2022-11-20T08:30:37.454Z,97938.25
2022-11-20T08:31:38.992Z,97944.00
2022-11-20T08:32:40.355Z,97939.53
2022-11-20T08:33:41.667Z,97948.41
2022-11-20T08:34:43.036Z,97942.66
2022-11-20T08:35:44.391Z,97950.75
2022-11-20T08:36:45.820Z,97944.00
2022-11-20T08:37:50.122Z,97947.72
2022-11-20T08:38:52.817Z,97949.09
2022-11-20T08:39:55.956Z,97942.75
2022-11-20T08:41:01.312Z,97945.09
2022-11-20T08:42:02.688Z,97944.78
2022-11-20T08:43:04.296Z,97948.19
2022-11-20T08:44:11.082Z,97949.28
2022-11-20T08:45:12.545Z,97944.63
2022-11-20T08:46:17.388Z,97944.63
2022-11-20T08:47:19.016Z,97954.38
2022-11-20T08:48:20.399Z,97944.22
2022-11-20T08:49:22.152Z,97938.63
2022-11-20T08:50:24.220Z,97947.41
2022-11-20T08:51:26.015Z,97947.16
2022-11-20T08:52:38.462Z,97950.66
2022-11-20T08:53:41.136Z,97948.28
2022-11-20T08:54:42.575Z,97953.31
2022-11-20T08:55:46.435Z,97949.88
2022-11-20T08:56:48.124Z,97953.88
2022-11-20T08:57:51.025Z,97957.78
2022-11-20T08:59:18.313Z,97956.41
2022-11-20T09:00:17.247Z,97958.56
2022-11-20T09:01:22.163Z,97962.47
2022-11-20T09:02:23.961Z,97958.75
2022-11-20T09:03:29.974Z,97961.38
2022-11-20T09:04:53.421Z,97959.25
2022-11-20T09:05:58.535Z,97962.56
2022-11-20T09:07:01.021Z,97958.06
2022-11-20T09:08:02.640Z,97958.56
2022-11-20T09:09:06.936Z,97954.34
2022-11-20T09:10:25.031Z,97965.41
2022-11-20T09:11:26.732Z,97964.63
2022-11-20T09:12:28.062Z,97964.03
2022-11-20T09:13:29.825Z,97962.47
2022-11-20T09:14:31.565Z,97963.56
2022-11-20T09:15:33.212Z,97969.28
2022-11-20T09:16:34.556Z,97970.94
2022-11-20T09:17:36.098Z,97970.19
2022-11-20T09:18:37.654Z,97966.50
2022-11-20T09:19:39.067Z,97963.34
2022-11-20T09:20:40.456Z,97969.41
2022-11-20T09:21:41.924Z,97967.25
2022-11-20T09:22:43.362Z,97969.59
2022-11-20T09:23:47.335Z,97969.28
2022-11-20T09:24:48.770Z,97971.66
2022-11-20T09:25:50.201Z,97974.78
2022-11-20T09:26:51.584Z,97975.56
2022-11-20T09:27:59.607Z,97974.47
2022-11-20T09:29:04.336Z,97977.88
2022-11-20T09:30:06.100Z,97977.41
2022-11-20T09:31:16.985Z,97970.88
2022-11-20T09:32:18.379Z,97968.53
2022-11-20T09:33:19.784Z,97977.81
2022-11-20T09:34:21.246Z,97980.44
2022-11-20T09:35:22.774Z,97979.94
2022-11-20T09:36:24.127Z,97975.97
2022-11-20T09:37:25.621Z,97976.72
2022-11-20T09:38:27.444Z,97967.44
2022-11-20T09:39:28.830Z,97978.19
2022-11-20T09:40:30.427Z,97983.00
2022-11-20T09:41:34.836Z,97983.78
2022-11-20T09:43:05.572Z,97974.00
2022-11-20T09:44:06.908Z,97988.16
2022-11-20T09:45:11.374Z,97983.88
2022-11-20T09:46:12.740Z,97985.47
2022-11-20T09:47:14.121Z,97989.16
2022-11-20T09:48:27.847Z,97985.47
2022-11-20T09:49:38.392Z,97989.97
2022-11-20T09:50:56.907Z,97988.28
2022-11-20T09:51:59.565Z,97985.81
2022-11-20T09:53:17.073Z,97988.00
2022-11-20T09:54:18.498Z,97989.53
2022-11-20T09:55:20.264Z,97994.03
2022-11-20T09:56:22.977Z,97993.56
2022-11-20T09:57:28.016Z,97992.19
2022-11-20T09:58:34.501Z,97992.66
2022-11-20T09:59:54.417Z,97991.59
2022-11-20T10:00:57.920Z,97987.59
2022-11-20T10:02:00.196Z,97993.16
2022-11-20T10:03:07.847Z,97990.91
2022-11-20T10:04:20.467Z,97989.34
2022-11-20T10:05:42.871Z,97988.09
2022-11-20T10:07:30.725Z,97986.22
2022-11-20T10:08:45.207Z,97985.34
2022-11-20T10:09:57.345Z,97990.91
2022-11-20T10:11:15.560Z,97994.91
2022-11-20T10:12:26.070Z,97991.59
2022-11-20T10:13:47.373Z,97991.28
2022-11-20T10:14:48.776Z,97988.47
2022-11-20T10:16:02.406Z,97991.28
2022-11-20T10:17:07.334Z,97987.19
2022-11-20T10:18:12.167Z,97993.38
2022-11-20T10:19:39.285Z,98003.31
2022-11-20T10:20:46.781Z,97992.09
2022-11-20T10:21:48.205Z,98000.31
2022-11-20T10:23:01.845Z,97998.44
2022-11-20T10:24:06.240Z,97999.03
2022-11-20T10:25:14.433Z,98002.75
2022-11-20T10:26:35.049Z,97989.34
2022-11-20T10:27:55.007Z,97991.22
2022-11-20T10:29:11.949Z,97995.50
2022-11-20T10:30:14.997Z,97994.53
2022-11-20T10:31:26.341Z,97996.09
2022-11-20T10:32:32.149Z,98003.22
2022-11-20T10:34:10.453Z,97999.22
2022-11-20T10:35:14.643Z,97996.59
2022-11-20T10:36:22.104Z,97998.91
2022-11-20T10:37:25.251Z,97998.13
2022-11-20T10:38:29.818Z,98002.44
2022-11-20T10:39:37.658Z,97988.78
2022-11-20T10:40:44.103Z,98000.50
2022-11-20T10:41:47.110Z,97997.38
2022-11-20T10:42:53.178Z,97994.72
2022-11-20T10:44:01.318Z,98007.59
2022-11-20T10:45:21.244Z,97989.22
2022-11-20T10:46:23.605Z,97993.44
2022-11-20T10:47:26.350Z,97987.19
2022-11-20T10:48:28.472Z,97981.84
2022-11-20T10:49:31.710Z,97980.38
2022-11-20T10:50:34.244Z,97978.59
2022-11-20T10:51:41.135Z,97975.25
2022-11-20T10:52:52.193Z,97980.06
2022-11-20T10:54:06.083Z,97981.91
2022-11-20T10:55:27.786Z,97975.56
2022-11-20T10:56:39.844Z,97976.84
2022-11-20T10:57:52.978Z,97984.25
2022-11-20T10:59:00.174Z,97978.28
2022-11-20T11:00:03.465Z,97989.16
2022-11-20T11:01:05.987Z,97984.56
2022-11-20T11:02:16.596Z,97981.13
2022-11-20T11:03:27.048Z,97987.28
2022-11-20T11:04:28.427Z,97978.28
2022-11-20T11:05:45.891Z,97982.31
2022-11-20T11:06:48.786Z,97981.13
2022-11-20T11:07:51.718Z,97983.00
2022-11-20T11:08:54.471Z,97972.72
2022-11-20T11:09:56.544Z,97973.78
2022-11-20T11:10:59.841Z,97975.97
2022-11-20T11:12:06.773Z,97975.06
2022-11-20T11:13:08.662Z,97972.91
2022-11-20T11:14:14.666Z,97972.34
2022-11-20T11:15:36.275Z,97972.81
2022-11-20T11:16:42.041Z,97962.97
2022-11-20T11:17:49.539Z,97967.66
2022-11-20T11:18:51.410Z,97963.38
2022-11-20T11:20:08.266Z,97961.00
2022-11-20T11:21:09.937Z,97958.28
2022-11-20T11:22:17.605Z,97951.63
2022-11-20T11:23:29.470Z,97956.59
2022-11-20T11:24:46.250Z,97953.84
2022-11-20T11:25:57.022Z,97947.97
2022-11-20T11:27:00.156Z,97946.97
2022-11-20T11:28:03.329Z,97945.50
2022-11-20T11:29:05.067Z,97943.34
2022-11-20T11:30:14.089Z,97945.88
2022-11-20T11:31:23.260Z,97936.47
2022-11-20T11:32:24.656Z,97938.56
2022-11-20T11:33:27.548Z,97937.22
2022-11-20T11:34:28.985Z,97937.88
2022-11-20T11:35:30.328Z,97941.34
2022-11-20T11:36:33.345Z,97937.47
2022-11-20T11:37:35.873Z,97940.63
2022-11-20T11:38:39.716Z,97933.06
2022-11-20T11:39:43.016Z,97934.97
2022-11-20T11:40:44.916Z,97930.63
2022-11-20T11:41:46.714Z,97931.78
2022-11-20T11:42:53.684Z,97932.97
2022-11-20T11:43:56.310Z,97920.06
2022-11-20T11:44:59.152Z,97925.03
2022-11-20T11:46:01.269Z,97920.06
2022-11-20T11:47:03.560Z,97923.97
2022-11-20T11:48:09.169Z,97930.50
2022-11-20T11:49:10.535Z,97917.09
2022-11-20T11:50:11.956Z,97921.63
2022-11-20T11:51:20.836Z,97921.44
2022-11-20T11:52:23.877Z,97921.41
2022-11-20T11:53:28.204Z,97918.13
2022-11-20T11:54:48.493Z,97917.16
2022-11-20T11:55:57.616Z,97913.06
2022-11-20T11:57:04.499Z,97915.84
2022-11-20T11:58:12.120Z,97911.19
2022-11-20T11:59:21.830Z,97912.56
2022-11-20T12:00:23.725Z,97913.50
2022-11-20T12:01:43.808Z,97913.94
2022-11-20T12:02:45.179Z,97901.16
2022-11-20T12:03:53.531Z,97909.56
2022-11-20T12:04:57.926Z,97912.34
2022-11-20T12:06:02.370Z,97911.56
2022-11-20T12:07:44.307Z,97910.47
2022-11-20T12:08:48.281Z,97906.16
2022-11-20T12:09:52.757Z,97911.81
2022-11-20T12:10:56.943Z,97909.84
2022-11-20T12:12:11.256Z,97903.81
2022-11-20T12:13:12.594Z,97904.16
2022-11-20T12:14:19.893Z,97912.44
2022-11-20T12:15:30.305Z,97918.84
2022-11-20T12:16:36.183Z,97906.13
2022-11-20T12:17:37.583Z,97903.47
2022-11-20T12:18:39.966Z,97908.91
2022-11-20T12:19:41.686Z,97910.28
2022-11-20T12:20:46.652Z,97906.06
2022-11-20T12:22:03.277Z,97902.91
2022-11-20T12:23:10.913Z,97899.13
2022-11-20T12:24:15.397Z,97902.88
2022-11-20T12:25:21.258Z,97895.06
2022-11-20T12:26:31.611Z,97898.31